Terminal Aerodrome Forecast
Issued by NWS Shreveport, LA

Home | Current Version | Previous Version | Text Only | Print | Product List | Glossary On
Versions: 1 2 3 4 5 6 7 8 9 10 11 12 13 14 15 16
000
FTUS44 KSHV 282300 RRA
TAFLFK
TAF
KLFK 282341Z 2900/2924 30006KT P6SM VCSH OVC007
      TEMPO 2900/2903 6SM -RA BR OVC005
     FM290300 34003KT P6SM OVC005
     FM290600 34003KT 2SM BR OVC004
     FM291500 VRB03KT P6SM OVC005
     FM291900 12003KT P6SM OVC010=

USA.gov is the U.S. government's official web portal to all federal, state and local government web resources and services.